Terminal Aerodrome Forecast
Issued by NWS

Home | Current Version | Previous Version | Text Only | Print | Product List | Glossary On
Versions: 1 2 3 4 5 6 7 8 9 10 11 12 13 14 15 16 17 18 19 20 21 22
000
FTUS46 KOTX 250523
TAFMWH
TAF
KMWH 250523Z 2506/2606 19004KT P6SM FEW100
     FM251300 21008KT P6SM FEW070 SCT250
     FM260200 20008KT P6SM FEW060 SCT100 BKN150=

USA.gov is the U.S. government's official web portal to all federal, state and local government web resources and services.